Time;durP1;ratioP1;P1;durP2;ratioP2;P2;SDS_P1;SDS_P2;PMS_P1;PMS_P2;Temp;Humidity;BMP_temperature;BMP_pressure;BME280_temperature;BME280_humidity;BME280_pressure;Samples;Min_cycle;Max_cycle;Signal;HPM_P1;HPM_P2
2023/01/31 00:00:53;;;;;;;17.60;6.05;;;4.40;99.90;;;;;;5033719;28;20449;-73
2023/01/31 00:03:19;;;;;;;22.02;5.85;;;4.40;99.90;;;;;;5032551;28;20079;-73
2023/01/31 00:05:45;;;;;;;21.75;3.67;;;4.40;99.90;;;;;;5034010;28;20072;-73
2023/01/31 00:08:12;;;;;;;20.90;4.70;;;4.40;99.90;;;;;;5033369;28;20033;-73
2023/01/31 00:10:38;;;;;;;20.35;3.97;;;4.40;99.90;;;;;;5015294;28;20115;-74
2023/01/31 00:13:04;;;;;;;19.70;4.38;;;4.40;99.90;;;;;;5033286;28;20068;-73
2023/01/31 00:15:30;;;;;;;10.82;3.35;;;4.40;99.90;;;;;;5032407;28;20095;-73
2023/01/31 00:17:55;;;;;;;14.85;3.70;;;4.30;99.90;;;;;;5032239;28;20435;-73
2023/01/31 00:20:21;;;;;;;16.05;3.92;;;4.30;99.90;;;;;;5033067;28;20490;-74
2023/01/31 00:22:47;;;;;;;17.75;4.95;;;4.30;99.90;;;;;;5032586;28;20049;-74
2023/01/31 00:25:12;;;;;;;14.32;4.40;;;4.30;99.90;;;;;;5032192;28;20486;-73
2023/01/31 00:27:38;;;;;;;14.30;3.58;;;4.30;99.90;;;;;;5032429;28;20050;-73
2023/01/31 00:30:04;;;;;;;12.65;3.88;;;4.30;99.90;;;;;;5032960;28;20052;-73
2023/01/31 00:32:30;;;;;;;14.57;4.50;;;4.30;99.90;;;;;;5032511;28;20037;-73
2023/01/31 00:34:56;;;;;;;17.70;4.03;;;4.30;99.90;;;;;;5032648;28;20115;-73
2023/01/31 00:37:21;;;;;;;18.08;3.75;;;4.30;99.90;;;;;;5049137;28;20143;-73
2023/01/31 00:39:47;;;;;;;16.17;4.55;;;4.30;99.90;;;;;;5051350;28;20049;-73
2023/01/31 00:42:13;;;;;;;17.70;3.97;;;4.30;99.90;;;;;;5052621;28;20040;-73
2023/01/31 00:44:38;;;;;;;14.60;3.30;;;4.30;99.90;;;;;;5052418;28;20145;-73
2023/01/31 00:47:04;;;;;;;15.20;3.50;;;4.30;99.90;;;;;;5051902;28;20489;-73
2023/01/31 00:49:30;;;;;;;16.20;3.72;;;4.30;99.90;;;;;;5053269;28;20474;-73
2023/01/31 00:51:56;;;;;;;12.35;4.05;;;4.30;99.90;;;;;;5051623;28;20482;-73
2023/01/31 00:54:21;;;;;;;19.00;3.17;;;4.30;99.90;;;;;;5053673;28;20122;-73
2023/01/31 00:56:47;;;;;;;18.52;4.03;;;4.30;99.90;;;;;;5052750;28;20417;-73
2023/01/31 00:59:13;;;;;;;16.70;3.70;;;4.30;99.90;;;;;;5051384;28;20084;-73
2023/01/31 01:01:39;;;;;;;16.45;3.58;;;4.30;99.90;;;;;;5051461;28;20037;-73
2023/01/31 01:04:05;;;;;;;19.90;4.00;;;4.30;99.90;;;;;;5052142;28;20378;-73
2023/01/31 01:06:31;;;;;;;23.48;4.20;;;4.30;99.90;;;;;;5052147;28;20043;-73
2023/01/31 01:08:58;;;;;;;19.48;3.78;;;4.20;99.90;;;;;;5052168;28;20048;-73
2023/01/31 01:11:27;;;;;;;16.80;4.40;;;4.20;99.90;;;;;;5051729;28;20045;-73
2023/01/31 01:13:54;;;;;;;15.10;3.10;;;4.20;99.90;;;;;;5051192;28;20128;-73
2023/01/31 01:16:23;;;;;;;15.63;3.08;;;4.20;99.90;;;;;;5051406;28;20083;-73
2023/01/31 01:18:49;;;;;;;9.63;3.63;;;4.20;99.90;;;;;;5052687;28;20044;-73
2023/01/31 01:21:21;;;;;;;18.95;3.65;;;4.20;99.90;;;;;;5052428;28;20056;-73
2023/01/31 01:23:48;;;;;;;18.50;3.88;;;4.20;99.90;;;;;;5052516;28;20076;-73
2023/01/31 01:26:16;;;;;;;13.40;3.28;;;4.30;99.90;;;;;;5051894;28;20044;-73
2023/01/31 01:28:41;;;;;;;15.40;3.28;;;4.30;99.90;;;;;;5050261;28;20037;-74
2023/01/31 01:31:09;;;;;;;23.58;4.55;;;4.30;99.90;;;;;;5034729;28;20041;-73
2023/01/31 01:33:36;;;;;;;18.67;3.60;;;4.30;99.90;;;;;;5052063;28;20548;-73
2023/01/31 01:36:03;;;;;;;20.67;3.90;;;4.30;99.90;;;;;;5050421;28;20041;-73
2023/01/31 01:38:29;;;;;;;17.05;4.38;;;4.30;99.90;;;;;;5051015;28;20455;-73
2023/01/31 01:40:55;;;;;;;13.32;3.75;;;4.30;99.90;;;;;;5051491;28;20039;-73
2023/01/31 01:43:37;;;;;;;18.30;4.43;;;4.20;99.90;;;;;;5050609;28;20099;-73
2023/01/31 01:46:03;;;;;;;14.40;3.50;;;4.20;99.90;;;;;;5031666;28;20433;-73
2023/01/31 01:48:29;;;;;;;18.70;3.75;;;4.10;99.90;;;;;;5030054;28;20042;-73
2023/01/31 01:50:55;;;;;;;12.75;3.60;;;4.10;99.90;;;;;;5032912;28;20467;-73
2023/01/31 01:53:23;;;;;;;17.48;3.72;;;4.10;99.90;;;;;;5031352;28;20052;-73
2023/01/31 01:56:16;;;;;;;19.92;3.53;;;4.00;99.90;;;;;;5030029;28;20045;-73
2023/01/31 01:58:53;;;;;;;15.70;3.53;;;4.00;99.90;;;;;;5030905;28;20037;-73
2023/01/31 02:01:20;;;;;;;14.27;3.72;;;4.00;99.90;;;;;;5031428;28;20399;-73
2023/01/31 02:03:48;;;;;;;16.80;3.83;;;4.00;99.90;;;;;;5031037;28;20048;-73
2023/01/31 02:06:14;;;;;;;21.08;4.85;;;4.00;99.90;;;;;;5033877;28;20103;-73
2023/01/31 02:08:41;;;;;;;20.00;3.67;;;4.00;99.90;;;;;;5050358;28;20037;-73
2023/01/31 02:11:13;;;;;;;17.58;3.70;;;4.00;99.90;;;;;;5050199;28;20509;-73
2023/01/31 02:13:44;;;;;;;15.88;3.35;;;4.00;99.90;;;;;;5050465;28;20055;-73
2023/01/31 02:16:10;;;;;;;15.10;3.42;;;4.00;99.90;;;;;;5050217;28;20041;-73
2023/01/31 02:18:36;;;;;;;18.25;3.97;;;4.00;99.90;;;;;;5049227;28;20052;-73
2023/01/31 02:21:04;;;;;;;13.25;2.83;;;4.10;99.90;;;;;;5036607;28;20048;-73
2023/01/31 02:23:54;;;;;;;13.88;3.47;;;4.10;99.90;;;;;;5029833;28;20042;-73
2023/01/31 02:26:38;;;;;;;14.25;3.47;;;4.10;99.90;;;;;;5031207;28;20160;-73
2023/01/31 02:29:19;;;;;;;12.13;3.20;;;4.10;99.90;;;;;;5032020;28;20551;-73
2023/01/31 02:32:12;;;;;;;18.48;3.47;;;4.10;99.90;;;;;;5013355;28;20044;-73
2023/01/31 02:35:02;;;;;;;13.82;3.35;;;4.00;99.90;;;;;;5034283;28;20044;-73
2023/01/31 02:37:50;;;;;;;17.42;3.45;;;4.00;99.90;;;;;;5049426;28;20037;-73
2023/01/31 02:40:31;;;;;;;14.98;3.28;;;4.00;99.90;;;;;;5050389;28;20045;-73
2023/01/31 02:43:22;;;;;;;11.07;2.90;;;3.90;99.90;;;;;;5049194;28;20393;-73
2023/01/31 02:46:10;;;;;;;15.75;3.53;;;3.90;99.90;;;;;;5032627;28;20045;-73
2023/01/31 02:49:04;;;;;;;13.15;2.70;;;3.90;99.90;;;;;;5051067;28;20076;-73
2023/01/31 02:51:37;;;;;;;14.65;3.00;;;3.90;99.90;;;;;;5054410;28;20041;-73
2023/01/31 02:56:13;;;;;;;20.85;3.42;;;3.90;99.90;;;;;;5055806;28;20048;-73
2023/01/31 02:57:10;;;;;;;18.42;3.58;;;3.90;99.90;;;;;;5055819;28;20044;-73
2023/01/31 02:59:38;;;;;;;16.42;3.60;;;4.00;99.90;;;;;;5052966;28;20029;-73
2023/01/31 03:02:04;;;;;;;9.93;3.17;;;4.00;99.90;;;;;;5054250;28;20137;-73
2023/01/31 03:04:32;;;;;;;9.50;2.47;;;4.00;99.90;;;;;;5055138;28;20397;-73
2023/01/31 03:07:07;;;;;;;10.35;2.60;;;4.10;99.90;;;;;;5037030;28;20047;-72
2023/01/31 03:09:35;;;;;;;14.18;3.58;;;4.10;99.90;;;;;;5053779;28;20043;-73
2023/01/31 03:12:13;;;;;;;13.60;3.10;;;4.20;99.90;;;;;;5037538;28;20037;-73
2023/01/31 03:14:47;;;;;;;19.08;3.63;;;4.20;99.90;;;;;;5041784;28;20394;-74
2023/01/31 03:17:48;;;;;;;13.88;3.15;;;4.20;99.90;;;;;;5017819;28;20033;-73
2023/01/31 03:20:36;;;;;;;18.33;4.30;;;4.30;99.90;;;;;;5024731;28;20045;-73
2023/01/31 03:23:14;;;;;;;12.50;3.22;;;4.40;99.90;;;;;;5034179;28;20040;-73
2023/01/31 03:25:40;;;;;;;13.90;3.60;;;4.40;99.90;;;;;;5034568;28;20052;-73
2023/01/31 03:28:12;;;;;;;12.68;3.17;;;4.40;99.90;;;;;;5016734;28;20119;-73
2023/01/31 03:30:53;;;;;;;15.02;4.00;;;4.40;99.90;;;;;;5017304;28;20045;-73
2023/01/31 03:33:22;;;;;;;13.98;4.00;;;4.50;99.90;;;;;;5017894;28;20124;-73
2023/01/31 03:35:56;;;;;;;14.98;3.17;;;4.50;99.90;;;;;;5051208;28;20037;-73
2023/01/31 03:38:27;;;;;;;15.73;3.47;;;4.60;99.90;;;;;;5053651;28;20061;-73
2023/01/31 03:41:00;;;;;;;13.50;3.83;;;4.60;99.90;;;;;;5053100;28;20041;-73
2023/01/31 03:43:30;;;;;;;14.32;3.97;;;4.70;99.90;;;;;;5040998;28;20044;-73
2023/01/31 03:46:05;;;;;;;12.85;4.18;;;4.70;99.90;;;;;;5033905;28;20037;-73
2023/01/31 03:48:36;;;;;;;22.67;4.63;;;4.80;99.90;;;;;;5033590;28;20143;-73
2023/01/31 03:51:06;;;;;;;18.73;4.32;;;4.80;99.90;;;;;;5033963;28;20045;-73
2023/01/31 03:53:38;;;;;;;17.30;3.38;;;4.90;99.90;;;;;;5033282;28;20045;-74
2023/01/31 03:56:09;;;;;;;23.05;7.10;;;4.90;99.90;;;;;;5032765;28;20046;-73
2023/01/31 03:58:40;;;;;;;18.95;4.80;;;4.90;99.90;;;;;;5034224;28;20119;-74
2023/01/31 04:01:09;;;;;;;24.88;5.70;;;5.00;99.90;;;;;;5033197;28;20434;-74
2023/01/31 04:03:40;;;;;;;21.67;6.43;;;5.00;99.90;;;;;;5016074;28;20034;-73
2023/01/31 04:06:06;;;;;;;17.02;4.38;;;5.10;99.90;;;;;;5016740;28;20111;-75
2023/01/31 04:08:33;;;;;;;16.40;5.00;;;5.10;99.90;;;;;;5032699;28;20037;-73
2023/01/31 04:11:02;;;;;;;13.38;4.32;;;5.20;99.90;;;;;;5032309;28;20041;-74
2023/01/31 04:13:28;;;;;;;28.25;4.65;;;5.20;99.90;;;;;;5033673;28;20077;-73
2023/01/31 04:15:53;;;;;;;18.30;4.88;;;5.20;99.90;;;;;;5032408;28;20076;-74
2023/01/31 04:18:19;;;;;;;22.73;4.82;;;5.20;99.90;;;;;;5016580;28;20405;-74
2023/01/31 04:20:45;;;;;;;17.42;5.05;;;5.20;99.90;;;;;;5016068;28;20530;-73
2023/01/31 04:23:10;;;;;;;20.50;4.85;;;5.30;99.90;;;;;;5032078;28;20041;-74
2023/01/31 04:25:36;;;;;;;23.02;5.53;;;5.30;99.90;;;;;;5015835;28;20041;-74
2023/01/31 04:28:02;;;;;;;18.55;4.70;;;5.30;99.90;;;;;;5032866;28;20041;-74
2023/01/31 04:30:27;;;;;;;20.75;4.85;;;5.30;99.90;;;;;;5014928;28;20077;-74
2023/01/31 04:32:53;;;;;;;24.42;4.90;;;5.30;99.90;;;;;;5034113;28;20037;-74
2023/01/31 04:35:18;;;;;;;23.50;5.57;;;5.30;99.90;;;;;;5032911;28;20047;-73
2023/01/31 04:37:44;;;;;;;21.27;5.22;;;5.30;99.90;;;;;;5048306;28;20498;-72
2023/01/31 04:40:12;;;;;;;20.15;5.38;;;5.30;99.90;;;;;;5052415;28;20405;-72
2023/01/31 04:42:38;;;;;;;23.45;6.32;;;5.30;99.90;;;;;;5048062;28;20112;-73
2023/01/31 04:45:05;;;;;;;12.63;4.40;;;5.30;99.90;;;;;;5033190;28;20128;-72
2023/01/31 04:47:30;;;;;;;17.05;4.65;;;5.20;99.90;;;;;;5032364;28;20044;-72
2023/01/31 04:49:56;;;;;;;22.25;6.30;;;5.20;99.90;;;;;;5033983;28;20508;-72
2023/01/31 04:52:23;;;;;;;22.98;5.00;;;5.20;99.90;;;;;;5032946;28;20088;-72
2023/01/31 04:54:49;;;;;;;21.92;5.97;;;5.20;99.90;;;;;;5032052;28;20046;-72
2023/01/31 04:57:14;;;;;;;24.25;5.50;;;5.20;99.90;;;;;;5032565;28;20479;-72
2023/01/31 04:59:40;;;;;;;20.25;5.38;;;5.20;99.90;;;;;;5045536;28;20033;-73
2023/01/31 05:02:06;;;;;;;19.15;5.15;;;5.20;99.90;;;;;;5050579;28;20075;-72
2023/01/31 05:04:32;;;;;;;20.30;6.28;;;5.20;99.90;;;;;;5052772;28;20033;-72
2023/01/31 05:06:57;;;;;;;22.58;5.57;;;5.20;99.90;;;;;;5052739;28;20041;-72
2023/01/31 05:09:23;;;;;;;23.20;6.20;;;5.20;99.90;;;;;;5053231;28;20040;-72
2023/01/31 05:11:50;;;;;;;28.30;5.72;;;5.20;99.90;;;;;;5051738;28;20233;-73
2023/01/31 05:14:16;;;;;;;22.52;5.30;;;5.20;99.90;;;;;;5051261;28;20482;-72
2023/01/31 05:16:46;;;;;;;23.63;5.68;;;5.20;99.90;;;;;;5050866;28;20051;-72
2023/01/31 05:19:15;;;;;;;16.23;4.93;;;5.20;99.90;;;;;;5052482;28;20116;-72
2023/01/31 05:21:53;;;;;;;29.05;6.30;;;5.20;99.90;;;;;;5051269;28;20033;-72
2023/01/31 05:24:22;;;;;;;23.52;5.78;;;5.30;99.90;;;;;;5052822;28;20047;-72
2023/01/31 05:26:50;;;;;;;22.73;6.78;;;5.20;99.90;;;;;;5050702;28;20036;-73
2023/01/31 05:29:16;;;;;;;21.70;6.20;;;5.30;99.90;;;;;;5035151;28;20037;-73
2023/01/31 05:31:42;;;;;;;22.25;6.00;;;5.30;99.90;;;;;;5051068;28;20098;-72
2023/01/31 05:34:09;;;;;;;22.23;5.80;;;5.30;99.90;;;;;;5050794;28;20482;-72
2023/01/31 05:36:35;;;;;;;20.60;5.47;;;5.40;99.90;;;;;;5034354;28;20045;-73
2023/01/31 05:39:00;;;;;;;18.02;6.22;;;5.40;99.90;;;;;;5051514;28;20505;-73
2023/01/31 05:41:26;;;;;;;31.80;6.72;;;5.40;99.90;;;;;;5050444;28;20033;-73
2023/01/31 05:43:52;;;;;;;21.48;6.18;;;5.50;99.90;;;;;;5034917;28;20402;-73
2023/01/31 05:46:17;;;;;;;15.68;5.53;;;5.50;99.90;;;;;;5031565;28;20069;-73
2023/01/31 05:48:43;;;;;;;17.92;5.20;;;5.50;99.90;;;;;;5030067;28;20045;-72
2023/01/31 05:51:08;;;;;;;29.48;5.80;;;5.60;99.90;;;;;;5031200;28;20088;-72
2023/01/31 05:53:34;;;;;;;23.35;5.20;;;5.60;99.90;;;;;;5030664;28;20044;-73
2023/01/31 05:56:00;;;;;;;22.92;5.40;;;5.70;99.90;;;;;;5014050;28;20060;-73
2023/01/31 05:58:25;;;;;;;15.90;5.35;;;5.70;99.90;;;;;;5032244;28;20041;-73
2023/01/31 06:00:55;;;;;;;18.65;5.35;;;5.70;99.90;;;;;;5032325;28;20143;-73
2023/01/31 06:03:21;;;;;;;16.60;4.82;;;5.80;99.90;;;;;;5030619;28;20037;-74
2023/01/31 06:05:47;;;;;;;22.27;5.93;;;5.80;99.90;;;;;;5031629;28;20047;-74
2023/01/31 06:08:12;;;;;;;20.45;5.05;;;5.80;99.90;;;;;;5031288;28;20056;-74
2023/01/31 06:10:38;;;;;;;21.42;5.90;;;5.80;99.90;;;;;;5013704;28;20041;-73
2023/01/31 06:13:06;;;;;;;31.67;6.15;;;5.80;99.90;;;;;;5031133;28;20551;-75
2023/01/31 06:15:32;;;;;;;17.38;5.53;;;5.80;99.90;;;;;;5043505;28;20037;-74
2023/01/31 06:17:58;;;;;;;16.35;5.15;;;5.80;99.90;;;;;;5035188;28;20033;-72
2023/01/31 06:20:25;;;;;;;17.67;4.88;;;5.90;99.90;;;;;;5034488;28;20073;-73
2023/01/31 06:22:50;;;;;;;18.58;5.60;;;6.00;99.90;;;;;;5031051;28;20190;-72
2023/01/31 06:25:16;;;;;;;16.73;5.20;;;6.00;99.90;;;;;;5033610;28;20515;-72
2023/01/31 06:27:42;;;;;;;18.60;4.75;;;6.00;99.90;;;;;;5030366;28;20440;-72
2023/01/31 06:30:09;;;;;;;17.48;5.18;;;6.00;99.90;;;;;;5031837;28;20068;-73
2023/01/31 06:32:35;;;;;;;21.60;4.57;;;6.10;99.90;;;;;;5030288;28;20550;-74
2023/01/31 06:35:02;;;;;;;14.48;4.65;;;6.10;99.90;;;;;;5030790;28;20041;-73
2023/01/31 06:37:28;;;;;;;21.13;5.25;;;6.10;99.90;;;;;;5043286;28;20041;-73
2023/01/31 06:39:53;;;;;;;19.10;5.45;;;6.10;99.90;;;;;;5050263;28;20095;-73
2023/01/31 06:42:19;;;;;;;19.13;5.20;;;6.10;99.90;;;;;;5034147;28;20406;-72
2023/01/31 06:44:45;;;;;;;21.13;4.70;;;6.10;99.90;;;;;;5050990;28;20430;-73
2023/01/31 06:47:11;;;;;;;21.20;5.13;;;6.10;99.90;;;;;;5034482;28;20125;-74
2023/01/31 06:49:38;;;;;;;22.80;6.05;;;6.10;99.90;;;;;;5050293;28;20470;-75
2023/01/31 06:52:04;;;;;;;16.50;4.63;;;6.10;99.90;;;;;;5051632;28;20072;-73
2023/01/31 06:54:29;;;;;;;16.52;4.05;;;6.20;99.90;;;;;;5051737;28;20083;-72
2023/01/31 06:56:55;;;;;;;24.52;4.60;;;6.20;99.90;;;;;;5052140;28;20045;-75
2023/01/31 06:59:21;;;;;;;13.88;3.65;;;6.10;99.90;;;;;;5033046;28;20041;-73
2023/01/31 07:01:47;;;;;;;23.25;4.13;;;6.10;99.90;;;;;;5033333;28;20041;-74
2023/01/31 07:04:12;;;;;;;12.68;3.47;;;6.10;99.90;;;;;;5050324;28;20098;-73
2023/01/31 07:06:38;;;;;;;21.48;4.85;;;6.10;99.90;;;;;;5049500;28;20044;-73
2023/01/31 07:09:04;;;;;;;18.85;4.35;;;6.10;99.90;;;;;;5050517;28;20048;-75
2023/01/31 07:11:30;;;;;;;21.10;4.50;;;6.10;99.90;;;;;;5051113;28;20052;-73
2023/01/31 07:13:55;;;;;;;12.27;3.55;;;6.20;99.90;;;;;;5040911;28;20076;-73
2023/01/31 07:16:24;;;;;;;17.50;4.45;;;6.10;99.90;;;;;;5037641;28;20481;-74
2023/01/31 07:18:53;;;;;;;16.85;3.70;;;6.10;99.90;;;;;;5035370;28;20065;-74
2023/01/31 07:21:20;;;;;;;17.67;4.10;;;6.10;99.90;;;;;;5041104;28;20087;-74
2023/01/31 07:23:46;;;;;;;12.25;3.35;;;6.10;99.90;;;;;;5048091;28;20553;-74
2023/01/31 07:26:12;;;;;;;10.85;3.40;;;6.10;99.90;;;;;;5036345;28;20120;-73
2023/01/31 07:28:38;;;;;;;18.77;3.40;;;6.00;99.90;;;;;;5051269;28;20405;-73
2023/01/31 07:31:10;;;;;;;15.65;3.15;;;6.10;99.90;;;;;;5043911;28;20041;-73
2023/01/31 07:33:37;;;;;;;13.30;3.28;;;6.10;99.90;;;;;;5030775;28;20041;-73
2023/01/31 07:36:05;;;;;;;12.45;4.07;;;6.10;99.90;;;;;;5023035;28;20056;-77
2023/01/31 07:38:32;;;;;;;15.63;3.80;;;6.10;99.90;;;;;;5031759;28;20053;-74
2023/01/31 07:41:04;;;;;;;13.50;3.50;;;6.10;99.90;;;;;;5032011;28;20041;-74
2023/01/31 07:43:31;;;;;;;14.75;3.45;;;6.10;99.90;;;;;;5031686;28;20068;-74
2023/01/31 07:45:57;;;;;;;10.40;3.25;;;6.20;99.90;;;;;;5038807;28;20037;-73
2023/01/31 07:48:23;;;;;;;14.15;3.75;;;6.10;99.90;;;;;;5049007;28;20048;-74
2023/01/31 07:50:59;;;;;;;12.00;3.60;;;6.20;99.90;;;;;;5044424;28;20398;-73
2023/01/31 07:53:30;;;;;;;14.55;4.00;;;6.20;99.90;;;;;;5042636;28;20773;-74
2023/01/31 07:56:05;;;;;;;13.15;4.15;;;6.20;99.90;;;;;;5036116;28;20044;-74
2023/01/31 07:58:34;;;;;;;17.52;3.53;;;6.20;99.90;;;;;;5032026;28;20049;-73
2023/01/31 08:03:50;;;;;;;12.75;3.92;;;6.20;99.90;;;;;;5033581;28;20057;-71
2023/01/31 08:06:16;;;;;;;13.57;4.38;;;6.20;99.90;;;;;;5033014;28;20049;-74
2023/01/31 08:08:43;;;;;;;13.23;4.07;;;6.30;99.90;;;;;;5038894;28;20094;-74
2023/01/31 08:11:09;;;;;;;18.15;5.18;;;6.30;99.90;;;;;;5040074;28;20387;-73
2023/01/31 08:13:36;;;;;;;14.95;4.03;;;6.30;99.90;;;;;;5050506;28;20036;-75
2023/01/31 08:16:03;;;;;;;24.02;5.63;;;6.30;99.90;;;;;;5049409;28;20048;-74
2023/01/31 08:18:29;;;;;;;22.45;5.57;;;6.40;99.90;;;;;;5027514;28;20039;-74
2023/01/31 08:20:56;;;;;;;14.90;4.13;;;6.40;99.90;;;;;;5013985;28;20049;-74
2023/01/31 08:23:22;;;;;;;16.52;5.40;;;6.40;99.90;;;;;;5029248;28;20501;-75
2023/01/31 08:25:47;;;;;;;16.13;5.32;;;6.40;99.90;;;;;;5030049;28;20041;-76
2023/01/31 08:28:14;;;;;;;20.38;5.50;;;6.50;99.90;;;;;;5030534;28;20044;-74
2023/01/31 08:30:41;;;;;;;23.13;5.05;;;6.60;99.90;;;;;;5012381;28;20052;-74
2023/01/31 08:33:08;;;;;;;19.25;4.72;;;6.60;99.90;;;;;;5035865;28;20045;-74
2023/01/31 08:35:33;;;;;;;13.82;3.78;;;6.60;99.90;;;;;;5028902;28;20108;-74
2023/01/31 08:37:59;;;;;;;16.15;3.88;;;6.60;99.90;;;;;;5012527;28;20172;-74
2023/01/31 08:40:26;;;;;;;18.35;4.05;;;6.60;99.90;;;;;;5029603;28;20053;-74
2023/01/31 08:42:56;;;;;;;16.45;3.80;;;6.50;99.90;;;;;;5013544;28;20560;-74
2023/01/31 08:45:22;;;;;;;19.52;5.55;;;6.60;99.90;;;;;;5032429;28;20047;-75
2023/01/31 08:47:51;;;;;;;21.00;4.85;;;6.50;99.90;;;;;;5046904;28;20075;-75
2023/01/31 08:50:17;;;;;;;15.90;4.97;;;6.50;99.90;;;;;;5049776;28;20052;-74
2023/01/31 08:52:43;;;;;;;22.80;5.53;;;6.50;99.90;;;;;;5032601;28;20041;-74
2023/01/31 08:55:12;;;;;;;15.35;3.70;;;6.50;99.90;;;;;;5047442;28;20045;-73
2023/01/31 08:57:39;;;;;;;20.25;4.40;;;6.50;99.90;;;;;;5046305;28;20049;-73
2023/01/31 09:00:06;;;;;;;26.67;5.28;;;6.50;99.90;;;;;;5042677;28;20378;-72
2023/01/31 09:02:33;;;;;;;18.63;4.13;;;6.60;99.90;;;;;;5040494;28;20049;-73
2023/01/31 09:05:06;;;;;;;15.25;5.45;;;6.60;99.90;;;;;;5048418;28;20477;-73
2023/01/31 09:07:35;;;;;;;20.13;5.22;;;6.60;99.90;;;;;;5048571;28;20056;-73
2023/01/31 09:10:01;;;;;;;17.15;5.50;;;6.60;99.90;;;;;;5049388;28;20156;-73
2023/01/31 09:12:26;;;;;;;27.90;9.85;;;6.60;99.90;;;;;;5039707;28;20144;-73
2023/01/31 09:14:52;;;;;;;19.05;5.97;;;6.60;99.90;;;;;;5020464;28;20059;-73
2023/01/31 09:17:18;;;;;;;19.67;9.07;;;6.70;99.90;;;;;;5049220;28;20041;-73
2023/01/31 09:19:44;;;;;;;19.67;7.93;;;6.70;99.90;;;;;;5048709;28;20049;-73
2023/01/31 09:22:10;;;;;;;23.30;9.02;;;6.70;99.90;;;;;;5068977;28;20493;-72
2023/01/31 09:24:36;;;;;;;30.83;8.73;;;6.70;99.90;;;;;;5051104;28;20041;-72
2023/01/31 09:27:01;;;;;;;18.95;7.60;;;6.70;99.90;;;;;;5039974;28;20052;-72
2023/01/31 09:29:28;;;;;;;35.08;16.20;;;6.70;99.90;;;;;;5012187;28;20034;-72
2023/01/31 09:31:54;;;;;;;22.27;7.47;;;6.80;99.90;;;;;;5028667;28;20083;-71
2023/01/31 09:34:21;;;;;;;33.83;11.70;;;6.70;99.90;;;;;;5058577;28;20037;-71
2023/01/31 09:36:47;;;;;;;23.73;7.43;;;6.80;99.90;;;;;;5067641;28;20147;-71
2023/01/31 09:39:13;;;;;;;21.08;6.20;;;6.80;99.90;;;;;;5061569;28;20571;-71
2023/01/31 09:42:07;;;;;;;19.52;5.45;;;6.80;99.90;;;;;;5036326;28;20045;-71
2023/01/31 09:45:03;;;;;;;24.00;9.98;;;6.80;99.90;;;;;;5020605;28;20049;-72
2023/01/31 09:47:50;;;;;;;22.33;7.65;;;6.80;99.90;;;;;;5028603;28;20041;-71
2023/01/31 09:50:30;;;;;;;24.40;10.00;;;6.80;99.90;;;;;;5028766;28;20482;-71
2023/01/31 09:52:57;;;;;;;19.02;6.40;;;6.80;99.90;;;;;;5028658;28;20046;-71
2023/01/31 09:55:50;;;;;;;20.55;7.60;;;6.80;99.90;;;;;;5044152;28;20385;-71
2023/01/31 09:58:43;;;;;;;19.23;6.47;;;6.90;99.90;;;;;;5047113;28;20036;-71
2023/01/31 10:01:15;;;;;;;23.98;7.75;;;6.90;99.90;;;;;;5043020;28;20049;-71
2023/01/31 10:03:47;;;;;;;19.75;7.68;;;6.90;99.90;;;;;;5050972;28;20044;-71
2023/01/31 10:06:22;;;;;;;21.13;5.35;;;6.90;99.90;;;;;;5052304;28;20045;-71
2023/01/31 10:09:13;;;;;;;20.38;5.45;;;6.90;99.90;;;;;;5027001;28;20104;-71
2023/01/31 10:11:45;;;;;;;20.75;5.40;;;6.90;99.90;;;;;;5032357;28;20124;-72
2023/01/31 10:14:33;;;;;;;18.52;5.70;;;6.90;99.90;;;;;;5041926;28;20045;-72
2023/01/31 10:17:10;;;;;;;22.65;5.43;;;6.90;99.90;;;;;;5047433;28;20056;-73
2023/01/31 10:20:18;;;;;;;23.13;5.40;;;6.90;99.90;;;;;;5043437;28;20045;-72
2023/01/31 10:22:59;;;;;;;22.58;5.97;;;6.90;99.90;;;;;;5026171;28;20076;-71
2023/01/31 10:25:50;;;;;;;19.27;5.97;;;6.90;99.90;;;;;;5012763;28;20402;-72
2023/01/31 10:28:24;;;;;;;22.52;5.03;;;6.90;99.90;;;;;;5042815;28;20048;-73
2023/01/31 10:31:16;;;;;;;19.40;5.18;;;6.90;99.90;;;;;;5047609;28;20048;-72
2023/01/31 10:33:57;;;;;;;20.83;6.47;;;6.90;99.90;;;;;;4998697;28;20045;-72
2023/01/31 10:36:41;;;;;;;21.20;5.70;;;6.90;99.90;;;;;;5010490;28;20084;-72
2023/01/31 10:39:25;;;;;;;22.33;4.57;;;6.90;99.90;;;;;;5028113;28;20066;-71
2023/01/31 10:42:02;;;;;;;18.90;4.07;;;7.00;99.90;;;;;;5032045;28;20500;-71
2023/01/31 10:44:37;;;;;;;19.55;5.10;;;7.00;99.90;;;;;;5047446;28;20041;-71
2023/01/31 10:47:11;;;;;;;23.37;6.10;;;7.00;99.90;;;;;;5030546;28;20033;-71
2023/01/31 10:49:37;;;;;;;19.30;6.85;;;7.00;99.90;;;;;;5046958;28;20502;-72
2023/01/31 10:52:43;;;;;;;19.08;4.53;;;7.10;99.90;;;;;;5047277;28;20044;-71
2023/01/31 10:56:00;;;;;;;18.33;6.25;;;7.00;99.90;;;;;;5031409;28;20091;-72
2023/01/31 10:58:25;;;;;;;;;;;7.10;99.90;;;;;;5000729;28;20046;-71
2023/01/31 11:00:51;;;;;;;20.17;5.18;;;7.10;99.90;;;;;;5050503;28;19980;-71
2023/01/31 11:03:17;;;;;;;19.63;5.00;;;7.10;99.90;;;;;;5058871;28;20032;-71
2023/01/31 11:05:50;;;;;;;27.17;8.38;;;7.10;99.90;;;;;;5042653;28;20053;-71
2023/01/31 11:08:44;;;;;;;19.92;7.05;;;7.10;99.90;;;;;;5035898;28;20045;-71
2023/01/31 11:11:16;;;;;;;24.40;6.25;;;7.20;99.90;;;;;;5030943;28;20053;-73
2023/01/31 11:13:54;;;;;;;16.42;4.50;;;7.30;99.90;;;;;;5030665;28;20128;-73
2023/01/31 11:16:19;;;;;;;16.15;4.22;;;7.30;99.90;;;;;;5043391;28;20044;-72
2023/01/31 11:18:48;;;;;;;17.45;6.10;;;7.30;99.90;;;;;;5050027;28;20449;-71
2023/01/31 11:21:24;;;;;;;16.58;5.72;;;7.40;99.90;;;;;;5051290;28;20069;-72
2023/01/31 11:23:51;;;;;;;17.45;5.90;;;7.40;99.90;;;;;;5049548;28;20098;-71
2023/01/31 11:26:37;;;;;;;17.77;6.00;;;7.40;99.90;;;;;;5041913;28;20037;-71
2023/01/31 11:29:15;;;;;;;16.17;4.43;;;7.50;99.90;;;;;;5032732;28;20088;-71
2023/01/31 11:31:44;;;;;;;17.25;5.00;;;7.50;99.90;;;;;;5046416;28;20043;-71
2023/01/31 11:34:28;;;;;;;16.95;4.75;;;7.50;99.90;;;;;;5049702;28;20047;-68
2023/01/31 11:37:04;;;;;;;19.30;4.38;;;7.60;99.90;;;;;;5036612;28;20083;-69
2023/01/31 11:39:37;;;;;;;17.85;3.90;;;7.70;99.90;;;;;;5038648;28;20052;-68
2023/01/31 11:42:11;;;;;;;22.92;4.75;;;7.70;99.90;;;;;;5036855;28;20037;-69
2023/01/31 11:44:56;;;;;;;20.58;4.43;;;7.80;99.90;;;;;;5031097;28;20045;-68
2023/01/31 11:47:43;;;;;;;15.32;4.95;;;7.80;99.90;;;;;;5030519;28;20037;-69
2023/01/31 11:50:39;;;;;;;14.82;3.63;;;7.90;99.90;;;;;;5016612;28;20049;-68
2023/01/31 11:53:14;;;;;;;13.13;4.05;;;8.00;99.90;;;;;;5042195;28;20512;-68
2023/01/31 11:55:42;;;;;;;15.95;5.22;;;8.00;99.90;;;;;;5049916;28;20045;-68
2023/01/31 11:58:33;;;;;;;16.42;3.78;;;8.00;99.90;;;;;;5034715;28;20041;-69
2023/01/31 12:01:06;;;;;;;16.63;4.05;;;8.10;99.90;;;;;;5034401;28;20693;-70
2023/01/31 12:03:33;;;;;;;10.82;3.78;;;8.10;99.90;;;;;;5051936;28;20041;-71
2023/01/31 12:06:01;;;;;;;14.02;3.88;;;8.20;99.90;;;;;;5051130;28;20053;-71
2023/01/31 12:08:37;;;;;;;16.13;4.03;;;8.20;99.90;;;;;;5027261;28;20045;-71
2023/01/31 12:11:28;;;;;;;16.17;4.03;;;8.20;99.90;;;;;;5032095;28;20088;-71
2023/01/31 12:14:14;;;;;;;13.63;3.55;;;8.30;99.90;;;;;;5031308;28;20052;-70
2023/01/31 12:16:41;;;;;;;17.40;3.85;;;8.30;99.90;;;;;;5014968;28;20490;-70
2023/01/31 12:19:13;;;;;;;13.80;3.35;;;8.30;99.90;;;;;;5044185;28;20444;-70
2023/01/31 12:21:50;;;;;;;18.40;5.63;;;8.40;99.90;;;;;;5029202;28;20041;-71
2023/01/31 12:24:51;;;;;;;16.85;5.35;;;8.40;99.90;;;;;;5040176;28;20095;-71
2023/01/31 12:27:36;;;;;;;17.52;5.30;;;8.50;99.90;;;;;;5034021;28;20047;-72
2023/01/31 12:30:20;;;;;;;16.13;3.42;;;8.60;99.90;;;;;;5049189;28;20055;-71
2023/01/31 12:33:08;;;;;;;14.05;4.90;;;8.70;99.90;;;;;;5051330;28;20044;-70
2023/01/31 12:35:55;;;;;;;15.65;4.28;;;8.80;99.90;;;;;;5022471;28;20045;-71
2023/01/31 12:38:45;;;;;;;15.52;4.53;;;8.90;99.90;;;;;;5030585;28;20053;-70
2023/01/31 12:41:40;;;;;;;22.08;4.13;;;8.90;99.90;;;;;;5031763;28;20084;-71
2023/01/31 12:44:15;;;;;;;19.08;4.78;;;8.90;99.90;;;;;;5031154;28;20073;-70
2023/01/31 12:47:11;;;;;;;13.45;3.83;;;8.90;99.90;;;;;;5013404;28;20053;-70
2023/01/31 12:49:56;;;;;;;15.73;4.68;;;8.90;99.90;;;;;;5033236;28;20049;-71
2023/01/31 12:52:38;;;;;;;15.60;4.80;;;8.80;99.90;;;;;;5050221;28;20049;-72
2023/01/31 12:55:37;;;;;;;16.88;4.50;;;8.80;99.90;;;;;;5050029;28;20041;-72
2023/01/31 12:58:17;;;;;;;13.52;4.38;;;8.80;99.90;;;;;;5012095;28;20042;-71
2023/01/31 13:00:55;;;;;;;14.75;4.60;;;8.80;99.90;;;;;;5029324;28;20121;-71
2023/01/31 13:03:29;;;;;;;13.50;4.40;;;8.70;99.90;;;;;;5020910;28;20044;-72
2023/01/31 13:06:17;;;;;;;17.00;4.32;;;8.70;99.90;;;;;;5051427;28;20044;-72
2023/01/31 13:08:54;;;;;;;12.40;4.07;;;8.70;99.90;;;;;;5031142;28;20494;-71
2023/01/31 13:11:27;;;;;;;18.60;4.10;;;8.70;99.90;;;;;;5044836;28;20474;-72
2023/01/31 13:13:58;;;;;;;20.63;4.03;;;8.70;99.90;;;;;;5021440;28;20042;-73